sensor_id;sensor_type;location;lat;lon;timestamp;P1;durP1;ratioP1;P2;durP2;ratioP2
4909;SDS011;2470;49.868;8.660;2022-12-05T00:01:26;20.77;;;11.30;;
4909;SDS011;2470;49.868;8.660;2022-12-05T00:03:56;24.57;;;9.33;;
4909;SDS011;2470;49.868;8.660;2022-12-05T00:06:24;20.60;;;9.77;;
4909;SDS011;2470;49.868;8.660;2022-12-05T00:08:51;19.13;;;9.50;;
4909;SDS011;2470;49.868;8.660;2022-12-05T00:11:17;18.57;;;9.27;;
4909;SDS011;2470;49.868;8.660;2022-12-05T00:13:45;14.47;;;8.03;;
4909;SDS011;2470;49.868;8.660;2022-12-05T00:16:13;22.80;;;9.37;;
4909;SDS011;2470;49.868;8.660;2022-12-05T00:18:41;19.23;;;8.67;;
4909;SDS011;2470;49.868;8.660;2022-12-05T00:21:07;19.27;;;9.83;;
4909;SDS011;2470;49.868;8.660;2022-12-05T00:23:37;34.77;;;12.97;;
4909;SDS011;2470;49.868;8.660;2022-12-05T00:26:03;31.13;;;10.70;;
4909;SDS011;2470;49.868;8.660;2022-12-05T00:28:30;22.80;;;9.57;;
4909;SDS011;2470;49.868;8.660;2022-12-05T00:30:57;17.70;;;9.53;;
4909;SDS011;2470;49.868;8.660;2022-12-05T00:33:27;21.70;;;9.07;;
4909;SDS011;2470;49.868;8.660;2022-12-05T00:35:53;17.67;;;8.40;;
4909;SDS011;2470;49.868;8.660;2022-12-05T00:38:18;22.50;;;12.00;;
4909;SDS011;2470;49.868;8.660;2022-12-05T00:40:44;18.50;;;10.50;;
4909;SDS011;2470;49.868;8.660;2022-12-05T00:43:09;15.83;;;8.03;;
4909;SDS011;2470;49.868;8.660;2022-12-05T00:45:35;25.27;;;10.63;;
4909;SDS011;2470;49.868;8.660;2022-12-05T00:48:00;15.77;;;8.20;;
4909;SDS011;2470;49.868;8.660;2022-12-05T00:50:25;19.33;;;8.90;;
4909;SDS011;2470;49.868;8.660;2022-12-05T00:52:51;20.07;;;8.20;;
4909;SDS011;2470;49.868;8.660;2022-12-05T00:55:16;16.37;;;7.67;;
4909;SDS011;2470;49.868;8.660;2022-12-05T00:57:42;20.43;;;10.27;;
4909;SDS011;2470;49.868;8.660;2022-12-05T01:00:07;18.60;;;7.90;;
4909;SDS011;2470;49.868;8.660;2022-12-05T01:02:33;20.77;;;10.47;;
4909;SDS011;2470;49.868;8.660;2022-12-05T01:04:59;22.40;;;9.90;;
4909;SDS011;2470;49.868;8.660;2022-12-05T01:07:25;37.33;;;12.70;;
4909;SDS011;2470;49.868;8.660;2022-12-05T01:09:51;22.00;;;8.97;;
4909;SDS011;2470;49.868;8.660;2022-12-05T01:12:16;27.03;;;11.20;;
4909;SDS011;2470;49.868;8.660;2022-12-05T01:14:42;20.83;;;8.30;;
4909;SDS011;2470;49.868;8.660;2022-12-05T01:17:08;18.27;;;8.63;;
4909;SDS011;2470;49.868;8.660;2022-12-05T01:19:34;20.93;;;8.60;;
4909;SDS011;2470;49.868;8.660;2022-12-05T01:21:59;23.97;;;9.80;;
4909;SDS011;2470;49.868;8.660;2022-12-05T01:24:25;17.77;;;9.03;;
4909;SDS011;2470;49.868;8.660;2022-12-05T01:26:52;18.50;;;8.23;;
4909;SDS011;2470;49.868;8.660;2022-12-05T01:29:19;17.33;;;9.00;;
4909;SDS011;2470;49.868;8.660;2022-12-05T01:31:45;20.47;;;10.63;;
4909;SDS011;2470;49.868;8.660;2022-12-05T01:34:12;22.77;;;10.70;;
4909;SDS011;2470;49.868;8.660;2022-12-05T01:36:39;16.23;;;8.37;;
4909;SDS011;2470;49.868;8.660;2022-12-05T01:39:05;13.80;;;6.73;;
4909;SDS011;2470;49.868;8.660;2022-12-05T01:41:33;20.20;;;7.93;;
4909;SDS011;2470;49.868;8.660;2022-12-05T01:44:02;22.37;;;10.37;;
4909;SDS011;2470;49.868;8.660;2022-12-05T01:46:52;17.23;;;9.37;;
4909;SDS011;2470;49.868;8.660;2022-12-05T01:49:19;17.67;;;8.63;;
4909;SDS011;2470;49.868;8.660;2022-12-05T01:51:49;20.80;;;9.73;;
4909;SDS011;2470;49.868;8.660;2022-12-05T01:54:18;28.77;;;11.43;;
4909;SDS011;2470;49.868;8.660;2022-12-05T01:56:47;28.67;;;8.53;;
4909;SDS011;2470;49.868;8.660;2022-12-05T01:59:20;19.73;;;8.43;;
4909;SDS011;2470;49.868;8.660;2022-12-05T02:01:47;21.23;;;8.63;;
4909;SDS011;2470;49.868;8.660;2022-12-05T02:04:13;29.93;;;9.60;;
4909;SDS011;2470;49.868;8.660;2022-12-05T02:06:39;23.93;;;9.77;;
4909;SDS011;2470;49.868;8.660;2022-12-05T02:09:05;22.87;;;10.03;;
4909;SDS011;2470;49.868;8.660;2022-12-05T02:11:31;17.57;;;8.83;;
4909;SDS011;2470;49.868;8.660;2022-12-05T02:17:01;20.20;;;9.40;;
4909;SDS011;2470;49.868;8.660;2022-12-05T02:19:59;20.27;;;8.37;;
4909;SDS011;2470;49.868;8.660;2022-12-05T02:30:42;21.77;;;9.03;;
4909;SDS011;2470;49.868;8.660;2022-12-05T02:33:34;25.40;;;9.73;;
4909;SDS011;2470;49.868;8.660;2022-12-05T02:36:12;21.00;;;9.80;;
4909;SDS011;2470;49.868;8.660;2022-12-05T02:39:02;20.17;;;9.37;;
4909;SDS011;2470;49.868;8.660;2022-12-05T02:41:39;28.83;;;10.23;;
4909;SDS011;2470;49.868;8.660;2022-12-05T02:44:32;21.73;;;10.87;;
4909;SDS011;2470;49.868;8.660;2022-12-05T02:47:02;20.97;;;8.87;;
4909;SDS011;2470;49.868;8.660;2022-12-05T02:49:32;19.87;;;9.17;;
4909;SDS011;2470;49.868;8.660;2022-12-05T02:52:01;20.50;;;8.37;;
4909;SDS011;2470;49.868;8.660;2022-12-05T02:54:31;17.00;;;7.80;;
4909;SDS011;2470;49.868;8.660;2022-12-05T02:57:00;27.07;;;10.83;;
4909;SDS011;2470;49.868;8.660;2022-12-05T02:59:26;18.57;;;8.73;;
4909;SDS011;2470;49.868;8.660;2022-12-05T03:01:52;19.07;;;8.27;;
4909;SDS011;2470;49.868;8.660;2022-12-05T03:04:19;17.40;;;8.80;;
4909;SDS011;2470;49.868;8.660;2022-12-05T03:06:49;27.50;;;11.50;;
4909;SDS011;2470;49.868;8.660;2022-12-05T03:09:17;24.13;;;10.07;;
4909;SDS011;2470;49.868;8.660;2022-12-05T03:11:46;26.70;;;10.60;;
4909;SDS011;2470;49.868;8.660;2022-12-05T03:14:21;24.53;;;10.20;;
4909;SDS011;2470;49.868;8.660;2022-12-05T03:16:50;22.03;;;9.40;;
4909;SDS011;2470;49.868;8.660;2022-12-05T03:19:25;20.83;;;8.70;;
4909;SDS011;2470;49.868;8.660;2022-12-05T03:22:00;26.23;;;10.27;;
4909;SDS011;2470;49.868;8.660;2022-12-05T03:24:40;17.87;;;7.83;;
4909;SDS011;2470;49.868;8.660;2022-12-05T03:27:20;18.03;;;9.20;;
4909;SDS011;2470;49.868;8.660;2022-12-05T03:29:54;23.70;;;8.97;;
4909;SDS011;2470;49.868;8.660;2022-12-05T03:32:29;17.17;;;9.87;;
4909;SDS011;2470;49.868;8.660;2022-12-05T03:38:10;25.03;;;8.40;;
4909;SDS011;2470;49.868;8.660;2022-12-05T03:40:43;15.70;;;8.43;;
4909;SDS011;2470;49.868;8.660;2022-12-05T03:48:31;20.20;;;9.73;;
4909;SDS011;2470;49.868;8.660;2022-12-05T03:51:11;25.63;;;8.70;;
4909;SDS011;2470;49.868;8.660;2022-12-05T03:53:41;19.03;;;7.97;;
4909;SDS011;2470;49.868;8.660;2022-12-05T03:56:12;25.83;;;9.90;;
4909;SDS011;2470;49.868;8.660;2022-12-05T04:01:45;29.70;;;9.23;;
4909;SDS011;2470;49.868;8.660;2022-12-05T04:04:15;24.80;;;9.53;;
4909;SDS011;2470;49.868;8.660;2022-12-05T04:06:45;23.00;;;9.30;;
4909;SDS011;2470;49.868;8.660;2022-12-05T04:09:17;19.80;;;9.67;;
4909;SDS011;2470;49.868;8.660;2022-12-05T04:11:50;21.37;;;8.70;;
4909;SDS011;2470;49.868;8.660;2022-12-05T04:14:25;25.27;;;10.63;;
4909;SDS011;2470;49.868;8.660;2022-12-05T04:17:05;22.40;;;8.90;;
4909;SDS011;2470;49.868;8.660;2022-12-05T04:19:36;21.23;;;11.40;;
4909;SDS011;2470;49.868;8.660;2022-12-05T04:22:32;23.27;;;11.20;;
4909;SDS011;2470;49.868;8.660;2022-12-05T04:24:59;27.00;;;9.80;;
4909;SDS011;2470;49.868;8.660;2022-12-05T04:27:55;25.70;;;11.33;;
4909;SDS011;2470;49.868;8.660;2022-12-05T04:30:30;29.13;;;9.87;;
4909;SDS011;2470;49.868;8.660;2022-12-05T04:33:08;21.43;;;9.20;;
4909;SDS011;2470;49.868;8.660;2022-12-05T04:35:45;26.63;;;10.87;;
4909;SDS011;2470;49.868;8.660;2022-12-05T04:41:01;25.87;;;9.93;;
4909;SDS011;2470;49.868;8.660;2022-12-05T04:43:29;32.77;;;11.53;;
4909;SDS011;2470;49.868;8.660;2022-12-05T04:45:58;24.20;;;11.60;;
4909;SDS011;2470;49.868;8.660;2022-12-05T04:48:28;23.40;;;10.90;;
4909;SDS011;2470;49.868;8.660;2022-12-05T04:50:54;29.30;;;9.00;;
4909;SDS011;2470;49.868;8.660;2022-12-05T04:53:22;27.60;;;11.03;;
4909;SDS011;2470;49.868;8.660;2022-12-05T04:55:52;34.97;;;12.50;;
4909;SDS011;2470;49.868;8.660;2022-12-05T04:58:23;25.53;;;9.37;;
4909;SDS011;2470;49.868;8.660;2022-12-05T05:01:04;27.93;;;10.90;;
4909;SDS011;2470;49.868;8.660;2022-12-05T05:03:42;17.90;;;9.80;;
4909;SDS011;2470;49.868;8.660;2022-12-05T05:06:12;26.43;;;9.43;;
4909;SDS011;2470;49.868;8.660;2022-12-05T05:08:49;20.63;;;8.60;;
4909;SDS011;2470;49.868;8.660;2022-12-05T05:11:20;35.77;;;11.50;;
4909;SDS011;2470;49.868;8.660;2022-12-05T05:13:47;29.93;;;10.53;;
4909;SDS011;2470;49.868;8.660;2022-12-05T05:16:14;30.67;;;11.40;;
4909;SDS011;2470;49.868;8.660;2022-12-05T05:18:42;20.47;;;9.90;;
4909;SDS011;2470;49.868;8.660;2022-12-05T05:21:14;17.60;;;8.83;;
4909;SDS011;2470;49.868;8.660;2022-12-05T05:23:45;21.13;;;10.83;;
4909;SDS011;2470;49.868;8.660;2022-12-05T05:26:11;27.53;;;10.37;;
4909;SDS011;2470;49.868;8.660;2022-12-05T05:28:37;32.50;;;10.20;;
4909;SDS011;2470;49.868;8.660;2022-12-05T05:31:03;31.00;;;11.53;;
4909;SDS011;2470;49.868;8.660;2022-12-05T05:33:29;27.43;;;11.07;;
4909;SDS011;2470;49.868;8.660;2022-12-05T05:35:55;35.37;;;13.07;;
4909;SDS011;2470;49.868;8.660;2022-12-05T05:38:21;39.17;;;13.80;;
4909;SDS011;2470;49.868;8.660;2022-12-05T05:40:46;30.53;;;10.50;;
4909;SDS011;2470;49.868;8.660;2022-12-05T05:43:12;28.63;;;10.77;;
4909;SDS011;2470;49.868;8.660;2022-12-05T05:45:37;36.43;;;12.10;;
4909;SDS011;2470;49.868;8.660;2022-12-05T05:48:03;40.47;;;11.23;;
4909;SDS011;2470;49.868;8.660;2022-12-05T05:50:29;23.53;;;9.97;;
4909;SDS011;2470;49.868;8.660;2022-12-05T05:52:54;33.43;;;12.43;;
4909;SDS011;2470;49.868;8.660;2022-12-05T05:55:20;47.13;;;10.00;;
4909;SDS011;2470;49.868;8.660;2022-12-05T05:57:45;23.33;;;10.20;;
4909;SDS011;2470;49.868;8.660;2022-12-05T06:00:11;28.77;;;11.10;;
4909;SDS011;2470;49.868;8.660;2022-12-05T06:02:37;39.60;;;11.57;;
4909;SDS011;2470;49.868;8.660;2022-12-05T06:05:03;23.03;;;10.20;;
4909;SDS011;2470;49.868;8.660;2022-12-05T06:07:29;31.60;;;11.77;;
4909;SDS011;2470;49.868;8.660;2022-12-05T06:09:54;40.00;;;11.57;;
4909;SDS011;2470;49.868;8.660;2022-12-05T06:12:20;24.87;;;10.50;;
4909;SDS011;2470;49.868;8.660;2022-12-05T06:14:46;16.17;;;8.50;;
4909;SDS011;2470;49.868;8.660;2022-12-05T06:17:13;23.87;;;10.23;;
4909;SDS011;2470;49.868;8.660;2022-12-05T06:19:38;25.67;;;9.10;;
4909;SDS011;2470;49.868;8.660;2022-12-05T06:22:04;22.97;;;9.90;;
4909;SDS011;2470;49.868;8.660;2022-12-05T06:24:29;36.83;;;11.77;;
4909;SDS011;2470;49.868;8.660;2022-12-05T06:26:55;34.57;;;13.90;;
4909;SDS011;2470;49.868;8.660;2022-12-05T06:29:21;23.53;;;10.00;;
4909;SDS011;2470;49.868;8.660;2022-12-05T06:31:46;38.00;;;13.80;;
4909;SDS011;2470;49.868;8.660;2022-12-05T06:34:12;32.93;;;11.70;;
4909;SDS011;2470;49.868;8.660;2022-12-05T06:36:37;23.53;;;9.60;;
4909;SDS011;2470;49.868;8.660;2022-12-05T06:39:03;22.87;;;10.17;;
4909;SDS011;2470;49.868;8.660;2022-12-05T06:41:29;28.10;;;10.37;;
4909;SDS011;2470;49.868;8.660;2022-12-05T06:43:55;30.53;;;11.23;;
4909;SDS011;2470;49.868;8.660;2022-12-05T06:46:22;27.97;;;10.50;;
4909;SDS011;2470;49.868;8.660;2022-12-05T06:48:51;16.77;;;9.33;;
4909;SDS011;2470;49.868;8.660;2022-12-05T06:51:17;31.80;;;12.03;;
4909;SDS011;2470;49.868;8.660;2022-12-05T06:53:43;28.80;;;11.50;;
4909;SDS011;2470;49.868;8.660;2022-12-05T06:56:10;28.00;;;8.53;;
4909;SDS011;2470;49.868;8.660;2022-12-05T06:58:38;35.17;;;11.33;;
4909;SDS011;2470;49.868;8.660;2022-12-05T07:01:04;31.03;;;10.33;;
4909;SDS011;2470;49.868;8.660;2022-12-05T07:03:48;21.40;;;10.43;;
4909;SDS011;2470;49.868;8.660;2022-12-05T07:06:14;28.23;;;9.57;;
4909;SDS011;2470;49.868;8.660;2022-12-05T07:08:40;43.30;;;11.17;;
4909;SDS011;2470;49.868;8.660;2022-12-05T07:11:06;26.90;;;11.57;;
4909;SDS011;2470;49.868;8.660;2022-12-05T07:13:32;42.07;;;9.93;;
4909;SDS011;2470;49.868;8.660;2022-12-05T07:15:57;37.50;;;13.83;;
4909;SDS011;2470;49.868;8.660;2022-12-05T07:18:23;37.07;;;10.80;;
4909;SDS011;2470;49.868;8.660;2022-12-05T07:20:56;37.47;;;12.70;;
4909;SDS011;2470;49.868;8.660;2022-12-05T07:23:26;30.33;;;11.50;;
4909;SDS011;2470;49.868;8.660;2022-12-05T07:25:51;24.37;;;10.33;;
4909;SDS011;2470;49.868;8.660;2022-12-05T07:28:18;29.10;;;11.23;;
4909;SDS011;2470;49.868;8.660;2022-12-05T07:30:43;20.93;;;10.63;;
4909;SDS011;2470;49.868;8.660;2022-12-05T07:33:09;30.87;;;12.10;;
4909;SDS011;2470;49.868;8.660;2022-12-05T07:35:35;26.60;;;10.63;;
4909;SDS011;2470;49.868;8.660;2022-12-05T07:38:00;25.30;;;10.17;;
4909;SDS011;2470;49.868;8.660;2022-12-05T07:40:26;23.17;;;10.83;;
4909;SDS011;2470;49.868;8.660;2022-12-05T07:42:52;29.40;;;11.23;;
4909;SDS011;2470;49.868;8.660;2022-12-05T07:45:18;36.00;;;10.93;;
4909;SDS011;2470;49.868;8.660;2022-12-05T07:47:44;39.63;;;12.30;;
4909;SDS011;2470;49.868;8.660;2022-12-05T07:50:10;47.73;;;12.67;;
4909;SDS011;2470;49.868;8.660;2022-12-05T07:52:35;43.60;;;13.57;;
4909;SDS011;2470;49.868;8.660;2022-12-05T07:55:01;32.23;;;11.07;;
4909;SDS011;2470;49.868;8.660;2022-12-05T07:57:30;43.20;;;13.90;;
4909;SDS011;2470;49.868;8.660;2022-12-05T07:59:55;39.00;;;14.43;;
4909;SDS011;2470;49.868;8.660;2022-12-05T08:02:21;31.90;;;11.57;;
4909;SDS011;2470;49.868;8.660;2022-12-05T08:04:46;46.27;;;16.00;;
4909;SDS011;2470;49.868;8.660;2022-12-05T08:07:12;29.80;;;13.00;;
4909;SDS011;2470;49.868;8.660;2022-12-05T08:09:38;36.77;;;14.17;;
4909;SDS011;2470;49.868;8.660;2022-12-05T08:12:03;38.20;;;11.70;;
4909;SDS011;2470;49.868;8.660;2022-12-05T08:14:32;29.53;;;13.47;;
4909;SDS011;2470;49.868;8.660;2022-12-05T08:16:58;32.60;;;13.20;;
4909;SDS011;2470;49.868;8.660;2022-12-05T08:19:23;31.50;;;13.23;;
4909;SDS011;2470;49.868;8.660;2022-12-05T08:21:49;32.60;;;12.90;;
4909;SDS011;2470;49.868;8.660;2022-12-05T08:24:16;32.37;;;11.00;;
4909;SDS011;2470;49.868;8.660;2022-12-05T08:26:41;35.80;;;12.13;;
4909;SDS011;2470;49.868;8.660;2022-12-05T08:29:08;32.83;;;12.33;;
4909;SDS011;2470;49.868;8.660;2022-12-05T08:31:37;40.90;;;13.57;;
4909;SDS011;2470;49.868;8.660;2022-12-05T08:34:10;25.50;;;10.80;;
4909;SDS011;2470;49.868;8.660;2022-12-05T08:36:36;38.63;;;12.13;;
4909;SDS011;2470;49.868;8.660;2022-12-05T08:39:03;26.20;;;10.63;;
4909;SDS011;2470;49.868;8.660;2022-12-05T08:41:30;25.37;;;10.70;;
4909;SDS011;2470;49.868;8.660;2022-12-05T08:43:57;26.27;;;10.40;;
4909;SDS011;2470;49.868;8.660;2022-12-05T08:46:24;31.13;;;13.07;;
4909;SDS011;2470;49.868;8.660;2022-12-05T08:48:50;27.43;;;10.60;;
4909;SDS011;2470;49.868;8.660;2022-12-05T08:51:15;34.57;;;13.97;;
4909;SDS011;2470;49.868;8.660;2022-12-05T08:53:41;27.47;;;10.70;;
4909;SDS011;2470;49.868;8.660;2022-12-05T08:56:07;28.73;;;10.93;;
4909;SDS011;2470;49.868;8.660;2022-12-05T08:58:34;36.27;;;11.37;;
4909;SDS011;2470;49.868;8.660;2022-12-05T09:01:10;27.07;;;11.40;;
4909;SDS011;2470;49.868;8.660;2022-12-05T09:03:42;24.40;;;11.17;;
4909;SDS011;2470;49.868;8.660;2022-12-05T09:06:15;15.17;;;7.90;;
4909;SDS011;2470;49.868;8.660;2022-12-05T09:08:44;28.67;;;11.07;;
4909;SDS011;2470;49.868;8.660;2022-12-05T09:11:11;23.97;;;10.17;;
4909;SDS011;2470;49.868;8.660;2022-12-05T09:13:40;28.63;;;11.17;;
4909;SDS011;2470;49.868;8.660;2022-12-05T09:16:06;26.90;;;11.80;;
4909;SDS011;2470;49.868;8.660;2022-12-05T09:18:34;23.80;;;10.53;;
4909;SDS011;2470;49.868;8.660;2022-12-05T09:21:07;30.10;;;12.07;;
4909;SDS011;2470;49.868;8.660;2022-12-05T09:23:34;29.30;;;9.90;;
4909;SDS011;2470;49.868;8.660;2022-12-05T09:25:59;26.67;;;12.60;;
4909;SDS011;2470;49.868;8.660;2022-12-05T09:28:29;35.00;;;11.83;;
4909;SDS011;2470;49.868;8.660;2022-12-05T09:31:03;26.70;;;10.10;;
4909;SDS011;2470;49.868;8.660;2022-12-05T09:33:31;26.37;;;10.40;;
4909;SDS011;2470;49.868;8.660;2022-12-05T09:36:01;34.70;;;11.73;;
4909;SDS011;2470;49.868;8.660;2022-12-05T09:38:36;25.63;;;9.73;;
4909;SDS011;2470;49.868;8.660;2022-12-05T09:48:47;38.53;;;12.27;;
4909;SDS011;2470;49.868;8.660;2022-12-05T09:51:13;47.83;;;12.57;;
4909;SDS011;2470;49.868;8.660;2022-12-05T09:53:40;30.83;;;14.33;;
4909;SDS011;2470;49.868;8.660;2022-12-05T10:01:25;28.20;;;11.27;;
4909;SDS011;2470;49.868;8.660;2022-12-05T10:14:57;31.47;;;11.77;;
4909;SDS011;2470;49.868;8.660;2022-12-05T10:17:36;36.83;;;12.00;;
4909;SDS011;2470;49.868;8.660;2022-12-05T10:20:28;29.37;;;12.17;;
4909;SDS011;2470;49.868;8.660;2022-12-05T10:23:02;35.57;;;11.43;;
4909;SDS011;2470;49.868;8.660;2022-12-05T10:25:38;28.93;;;13.47;;
4909;SDS011;2470;49.868;8.660;2022-12-05T10:28:09;41.63;;;11.30;;
4909;SDS011;2470;49.868;8.660;2022-12-05T10:30:42;31.77;;;12.87;;
4909;SDS011;2470;49.868;8.660;2022-12-05T10:33:12;33.20;;;13.37;;
4909;SDS011;2470;49.868;8.660;2022-12-05T10:35:42;34.40;;;12.53;;
4909;SDS011;2470;49.868;8.660;2022-12-05T10:38:22;23.77;;;11.30;;
4909;SDS011;2470;49.868;8.660;2022-12-05T10:40:52;31.83;;;13.27;;
4909;SDS011;2470;49.868;8.660;2022-12-05T10:43:23;27.10;;;12.40;;
4909;SDS011;2470;49.868;8.660;2022-12-05T10:45:50;30.07;;;12.03;;
4909;SDS011;2470;49.868;8.660;2022-12-05T10:48:17;43.07;;;13.13;;
4909;SDS011;2470;49.868;8.660;2022-12-05T10:50:44;40.50;;;13.10;;
4909;SDS011;2470;49.868;8.660;2022-12-05T10:53:17;42.90;;;12.83;;
4909;SDS011;2470;49.868;8.660;2022-12-05T10:55:47;36.67;;;13.73;;
4909;SDS011;2470;49.868;8.660;2022-12-05T10:58:19;31.00;;;13.57;;
4909;SDS011;2470;49.868;8.660;2022-12-05T11:00:58;35.83;;;14.70;;
4909;SDS011;2470;49.868;8.660;2022-12-05T11:03:36;36.00;;;12.60;;
4909;SDS011;2470;49.868;8.660;2022-12-05T11:06:16;27.43;;;12.20;;
4909;SDS011;2470;49.868;8.660;2022-12-05T11:08:50;33.83;;;14.80;;
4909;SDS011;2470;49.868;8.660;2022-12-05T11:11:18;30.77;;;12.37;;
4909;SDS011;2470;49.868;8.660;2022-12-05T11:14:06;26.13;;;13.07;;
4909;SDS011;2470;49.868;8.660;2022-12-05T11:16:54;27.13;;;10.90;;
4909;SDS011;2470;49.868;8.660;2022-12-05T11:22:00;28.50;;;12.70;;
4909;SDS011;2470;49.868;8.660;2022-12-05T11:26:53;31.07;;;11.03;;
4909;SDS011;2470;49.868;8.660;2022-12-05T11:29:36;41.43;;;12.43;;
4909;SDS011;2470;49.868;8.660;2022-12-05T11:32:03;47.47;;;13.00;;
4909;SDS011;2470;49.868;8.660;2022-12-05T11:34:41;29.83;;;12.20;;
4909;SDS011;2470;49.868;8.660;2022-12-05T11:37:21;47.43;;;14.50;;
4909;SDS011;2470;49.868;8.660;2022-12-05T11:39:50;26.37;;;10.77;;
4909;SDS011;2470;49.868;8.660;2022-12-05T11:42:28;44.07;;;10.83;;
4909;SDS011;2470;49.868;8.660;2022-12-05T11:45:16;26.07;;;12.80;;
4909;SDS011;2470;49.868;8.660;2022-12-05T11:48:03;28.73;;;10.07;;
4909;SDS011;2470;49.868;8.660;2022-12-05T11:50:51;26.57;;;10.20;;
4909;SDS011;2470;49.868;8.660;2022-12-05T11:53:41;29.17;;;12.40;;
4909;SDS011;2470;49.868;8.660;2022-12-05T11:56:33;30.50;;;11.40;;
4909;SDS011;2470;49.868;8.660;2022-12-05T11:59:07;29.43;;;12.23;;
4909;SDS011;2470;49.868;8.660;2022-12-05T12:04:48;23.97;;;10.60;;
4909;SDS011;2470;49.868;8.660;2022-12-05T12:07:19;29.70;;;11.10;;
4909;SDS011;2470;49.868;8.660;2022-12-05T12:12:38;20.20;;;10.50;;
4909;SDS011;2470;49.868;8.660;2022-12-05T12:15:25;21.40;;;10.87;;
4909;SDS011;2470;49.868;8.660;2022-12-05T12:21:16;27.30;;;10.83;;
4909;SDS011;2470;49.868;8.660;2022-12-05T12:23:46;23.90;;;11.60;;
4909;SDS011;2470;49.868;8.660;2022-12-05T12:29:50;36.13;;;11.50;;
4909;SDS011;2470;49.868;8.660;2022-12-05T12:35:53;30.03;;;11.37;;
4909;SDS011;2470;49.868;8.660;2022-12-05T12:38:46;22.20;;;9.83;;
4909;SDS011;2470;49.868;8.660;2022-12-05T12:44:39;23.27;;;9.83;;
4909;SDS011;2470;49.868;8.660;2022-12-05T12:47:23;23.07;;;10.53;;
4909;SDS011;2470;49.868;8.660;2022-12-05T12:50:32;21.13;;;10.77;;
4909;SDS011;2470;49.868;8.660;2022-12-05T12:53:06;23.93;;;9.83;;
4909;SDS011;2470;49.868;8.660;2022-12-05T13:04:57;31.80;;;8.80;;
4909;SDS011;2470;49.868;8.660;2022-12-05T13:07:35;19.47;;;9.90;;
4909;SDS011;2470;49.868;8.660;2022-12-05T13:12:52;24.23;;;10.77;;
4909;SDS011;2470;49.868;8.660;2022-12-05T13:15:35;29.67;;;14.60;;
4909;SDS011;2470;49.868;8.660;2022-12-05T13:18:11;28.77;;;11.90;;
4909;SDS011;2470;49.868;8.660;2022-12-05T13:20:40;35.37;;;11.97;;
4909;SDS011;2470;49.868;8.660;2022-12-05T13:23:06;33.77;;;12.20;;
4909;SDS011;2470;49.868;8.660;2022-12-05T13:25:36;29.53;;;13.90;;
4909;SDS011;2470;49.868;8.660;2022-12-05T13:28:05;38.30;;;12.50;;
4909;SDS011;2470;49.868;8.660;2022-12-05T13:30:47;32.13;;;11.90;;
4909;SDS011;2470;49.868;8.660;2022-12-05T13:33:27;27.57;;;12.90;;
4909;SDS011;2470;49.868;8.660;2022-12-05T13:35:56;22.00;;;9.50;;
4909;SDS011;2470;49.868;8.660;2022-12-05T13:38:47;33.27;;;12.70;;
4909;SDS011;2470;49.868;8.660;2022-12-05T13:41:38;22.73;;;10.50;;
4909;SDS011;2470;49.868;8.660;2022-12-05T13:44:53;23.17;;;12.40;;
4909;SDS011;2470;49.868;8.660;2022-12-05T13:52:44;28.43;;;11.57;;
4909;SDS011;2470;49.868;8.660;2022-12-05T14:05:53;25.33;;;11.40;;
4909;SDS011;2470;49.868;8.660;2022-12-05T14:08:01;29.13;;;11.53;;
4909;SDS011;2470;49.868;8.660;2022-12-05T14:15:39;31.47;;;13.17;;
4909;SDS011;2470;49.868;8.660;2022-12-05T14:18:12;21.97;;;12.20;;
4909;SDS011;2470;49.868;8.660;2022-12-05T14:34:20;23.73;;;10.03;;
4909;SDS011;2470;49.868;8.660;2022-12-05T14:45:20;19.07;;;9.83;;
4909;SDS011;2470;49.868;8.660;2022-12-05T14:47:53;19.07;;;8.70;;
4909;SDS011;2470;49.868;8.660;2022-12-05T14:56:00;30.03;;;11.30;;
4909;SDS011;2470;49.868;8.660;2022-12-05T15:01:21;19.30;;;9.60;;
4909;SDS011;2470;49.868;8.660;2022-12-05T15:04:05;21.40;;;9.30;;
4909;SDS011;2470;49.868;8.660;2022-12-05T15:06:46;28.10;;;10.77;;
4909;SDS011;2470;49.868;8.660;2022-12-05T15:14:56;24.30;;;10.30;;
4909;SDS011;2470;49.868;8.660;2022-12-05T15:17:38;26.20;;;12.17;;
4909;SDS011;2470;49.868;8.660;2022-12-05T15:26:22;19.93;;;9.23;;
4909;SDS011;2470;49.868;8.660;2022-12-05T15:29:12;17.10;;;9.67;;
4909;SDS011;2470;49.868;8.660;2022-12-05T15:31:51;14.40;;;8.83;;
4909;SDS011;2470;49.868;8.660;2022-12-05T15:39:29;17.87;;;7.43;;
4909;SDS011;2470;49.868;8.660;2022-12-05T15:42:15;22.83;;;10.37;;
4909;SDS011;2470;49.868;8.660;2022-12-05T15:44:41;19.30;;;9.23;;
4909;SDS011;2470;49.868;8.660;2022-12-05T15:47:23;18.73;;;7.60;;
4909;SDS011;2470;49.868;8.660;2022-12-05T15:49:50;31.37;;;10.80;;
4909;SDS011;2470;49.868;8.660;2022-12-05T15:52:27;20.80;;;9.70;;
4909;SDS011;2470;49.868;8.660;2022-12-05T15:55:04;16.03;;;9.03;;
4909;SDS011;2470;49.868;8.660;2022-12-05T15:57:38;18.30;;;9.63;;
4909;SDS011;2470;49.868;8.660;2022-12-05T16:00:13;25.23;;;10.10;;
4909;SDS011;2470;49.868;8.660;2022-12-05T16:02:43;33.27;;;10.07;;
4909;SDS011;2470;49.868;8.660;2022-12-05T16:08:00;19.30;;;9.47;;
4909;SDS011;2470;49.868;8.660;2022-12-05T16:10:27;34.07;;;9.60;;
4909;SDS011;2470;49.868;8.660;2022-12-05T16:12:54;17.20;;;8.40;;
4909;SDS011;2470;49.868;8.660;2022-12-05T16:15:26;16.13;;;7.97;;
4909;SDS011;2470;49.868;8.660;2022-12-05T16:17:56;17.17;;;7.90;;
4909;SDS011;2470;49.868;8.660;2022-12-05T16:20:33;17.40;;;9.50;;
4909;SDS011;2470;49.868;8.660;2022-12-05T16:23:04;16.53;;;8.30;;
4909;SDS011;2470;49.868;8.660;2022-12-05T16:25:52;11.00;;;6.50;;
4909;SDS011;2470;49.868;8.660;2022-12-05T16:28:33;17.03;;;8.80;;
4909;SDS011;2470;49.868;8.660;2022-12-05T16:30:59;14.70;;;8.10;;
4909;SDS011;2470;49.868;8.660;2022-12-05T16:33:27;11.73;;;6.53;;
4909;SDS011;2470;49.868;8.660;2022-12-05T16:35:54;11.37;;;5.30;;
4909;SDS011;2470;49.868;8.660;2022-12-05T16:41:05;12.00;;;5.90;;
4909;SDS011;2470;49.868;8.660;2022-12-05T16:51:52;7.20;;;5.30;;
4909;SDS011;2470;49.868;8.660;2022-12-05T16:54:33;9.90;;;4.07;;
4909;SDS011;2470;49.868;8.660;2022-12-05T16:56:59;8.73;;;5.57;;
4909;SDS011;2470;49.868;8.660;2022-12-05T16:59:33;6.53;;;4.23;;
4909;SDS011;2470;49.868;8.660;2022-12-05T17:02:01;9.53;;;5.27;;
4909;SDS011;2470;49.868;8.660;2022-12-05T17:04:27;7.43;;;4.20;;
4909;SDS011;2470;49.868;8.660;2022-12-05T17:06:53;5.17;;;4.10;;
4909;SDS011;2470;49.868;8.660;2022-12-05T17:09:18;8.17;;;4.37;;
4909;SDS011;2470;49.868;8.660;2022-12-05T17:11:45;6.53;;;3.60;;
4909;SDS011;2470;49.868;8.660;2022-12-05T17:14:12;7.07;;;4.00;;
4909;SDS011;2470;49.868;8.660;2022-12-05T17:16:39;5.10;;;3.00;;
4909;SDS011;2470;49.868;8.660;2022-12-05T17:19:05;7.60;;;3.67;;
4909;SDS011;2470;49.868;8.660;2022-12-05T17:21:31;5.53;;;4.17;;
4909;SDS011;2470;49.868;8.660;2022-12-05T17:23:58;5.80;;;3.60;;
4909;SDS011;2470;49.868;8.660;2022-12-05T17:26:24;8.90;;;3.77;;
4909;SDS011;2470;49.868;8.660;2022-12-05T17:28:50;4.80;;;3.27;;
4909;SDS011;2470;49.868;8.660;2022-12-05T17:31:16;5.10;;;3.13;;
4909;SDS011;2470;49.868;8.660;2022-12-05T17:33:44;6.53;;;3.70;;
4909;SDS011;2470;49.868;8.660;2022-12-05T17:36:11;6.00;;;3.53;;
4909;SDS011;2470;49.868;8.660;2022-12-05T17:38:37;2.90;;;2.60;;
4909;SDS011;2470;49.868;8.660;2022-12-05T17:41:02;6.57;;;3.77;;
4909;SDS011;2470;49.868;8.660;2022-12-05T17:43:28;6.00;;;3.23;;
4909;SDS011;2470;49.868;8.660;2022-12-05T17:45:54;9.50;;;3.00;;
4909;SDS011;2470;49.868;8.660;2022-12-05T17:48:19;8.77;;;2.60;;
4909;SDS011;2470;49.868;8.660;2022-12-05T17:50:46;4.50;;;3.73;;
4909;SDS011;2470;49.868;8.660;2022-12-05T17:53:13;4.90;;;3.23;;
4909;SDS011;2470;49.868;8.660;2022-12-05T17:55:41;5.47;;;3.50;;
4909;SDS011;2470;49.868;8.660;2022-12-05T17:58:07;3.30;;;2.80;;
4909;SDS011;2470;49.868;8.660;2022-12-05T18:00:33;5.97;;;3.20;;
4909;SDS011;2470;49.868;8.660;2022-12-05T18:02:59;5.30;;;3.40;;
4909;SDS011;2470;49.868;8.660;2022-12-05T18:05:24;8.93;;;3.37;;